Time;durP1;ratioP1;P1;durP2;ratioP2;P2;SDS_P1;SDS_P2;PMS_P1;PMS_P2;Temp;Humidity;BMP_temperature;BMP_pressure;BME280_temperature;BME280_humidity;BME280_pressure;Samples;Min_cycle;Max_cycle;Signal;HPM_P1;HPM_P2
2021/12/28 00:02:11;;;;;;;18.37;12.53;;;1.40;99.90;;;;;;5033822;28;20559;-76
2021/12/28 00:04:37;;;;;;;28.33;15.90;;;1.40;99.90;;;;;;5034999;28;20175;-76
2021/12/28 00:07:03;;;;;;;20.20;10.70;;;1.50;99.90;;;;;;5034415;28;20221;-77
2021/12/28 00:09:29;;;;;;;29.03;13.87;;;1.40;99.90;;;;;;5034131;28;20171;-76
2021/12/28 00:11:54;;;;;;;22.23;15.07;;;1.40;99.90;;;;;;5034092;28;20418;-72
2021/12/28 00:14:22;;;;;;;21.53;12.90;;;1.50;99.90;;;;;;5034100;28;20172;-76
2021/12/28 00:19:32;;;;;;;17.43;11.60;;;1.40;99.90;;;;;;5034370;28;20221;-77
2021/12/28 00:21:58;;;;;;;18.30;12.03;;;1.40;99.90;;;;;;5032813;28;20505;-73
2021/12/28 00:24:23;;;;;;;19.60;12.23;;;1.40;99.90;;;;;;5031319;28;20171;-77
2021/12/28 00:26:49;;;;;;;21.83;14.30;;;1.40;99.90;;;;;;5033665;28;20188;-77
2021/12/28 00:29:15;;;;;;;27.07;14.33;;;1.40;99.90;;;;;;5034280;28;20692;-78
2021/12/28 00:31:40;;;;;;;22.37;12.03;;;1.40;99.90;;;;;;5034273;28;20200;-73
2021/12/28 00:34:06;;;;;;;23.00;16.07;;;1.40;99.90;;;;;;5032370;28;20194;-76
2021/12/28 00:36:32;;;;;;;18.87;12.20;;;1.40;99.90;;;;;;5033881;28;20192;-70
2021/12/28 00:39:00;;;;;;;32.47;16.17;;;1.50;99.90;;;;;;5034491;28;20617;-76
2021/12/28 00:41:25;;;;;;;26.23;15.23;;;1.50;99.90;;;;;;5046442;28;20176;-76
2021/12/28 00:43:52;;;;;;;21.63;13.80;;;1.50;99.90;;;;;;5031298;28;20441;-70
2021/12/28 00:46:17;;;;;;;23.40;14.05;;;1.50;99.90;;;;;;5033703;28;20452;-77
2021/12/28 00:48:43;;;;;;;21.13;14.03;;;1.50;99.90;;;;;;5034331;28;20180;-69
2021/12/28 00:51:09;;;;;;;24.20;13.27;;;1.50;99.90;;;;;;5033578;28;20294;-78
2021/12/28 00:53:34;;;;;;;20.73;13.70;;;1.40;99.90;;;;;;5033236;28;20192;-77
2021/12/28 00:56:00;;;;;;;22.07;13.53;;;1.50;99.90;;;;;;5018544;28;20231;-75
2021/12/28 00:58:26;;;;;;;21.40;12.53;;;1.50;99.90;;;;;;5014121;28;20252;-78
2021/12/28 01:00:52;;;;;;;21.40;14.30;;;1.50;99.90;;;;;;5029836;28;20918;-76
2021/12/28 01:03:19;;;;;;;23.47;15.13;;;1.50;99.90;;;;;;5032321;28;20586;-76
2021/12/28 01:05:45;;;;;;;16.42;12.85;;;1.50;99.90;;;;;;5033470;28;20488;-69
2021/12/28 01:08:11;;;;;;;27.55;14.18;;;1.40;99.90;;;;;;5033676;28;20175;-76
2021/12/28 01:10:42;;;;;;;21.90;14.87;;;1.40;99.90;;;;;;5033429;28;20210;-76
2021/12/28 01:13:08;;;;;;;28.13;17.35;;;1.50;99.90;;;;;;5032394;28;20195;-77
2021/12/28 01:15:34;;;;;;;24.87;13.17;;;1.50;99.90;;;;;;5033422;28;20175;-69
2021/12/28 01:18:00;;;;;;;23.10;13.23;;;1.50;99.90;;;;;;5033219;28;20407;-69
2021/12/28 01:20:26;;;;;;;25.35;14.30;;;1.50;99.90;;;;;;5033065;28;20647;-76
2021/12/28 01:22:53;;;;;;;23.92;13.48;;;1.50;99.90;;;;;;5032432;28;20310;-70
2021/12/28 01:25:19;;;;;;;22.73;14.20;;;1.50;99.90;;;;;;5033336;28;20187;-70
2021/12/28 01:27:45;;;;;;;22.20;15.23;;;1.50;99.90;;;;;;5033506;28;20176;-77
2021/12/28 01:30:17;;;;;;;14.47;12.10;;;1.50;99.90;;;;;;5033286;28;20203;-77
2021/12/28 01:32:43;;;;;;;20.95;12.55;;;1.50;99.90;;;;;;5032319;28;20428;-76
2021/12/28 01:35:13;;;;;;;35.65;14.05;;;1.60;99.90;;;;;;5032813;28;20194;-76
2021/12/28 01:37:39;;;;;;;35.85;14.27;;;1.60;99.90;;;;;;5033082;28;20198;-71
2021/12/28 01:40:08;;;;;;;16.85;12.85;;;1.60;99.90;;;;;;5032763;28;20188;-72
2021/12/28 01:42:52;;;;;;;23.45;12.45;;;1.60;99.90;;;;;;5032052;28;20171;-71
2021/12/28 01:45:18;;;;;;;27.67;15.80;;;1.50;99.90;;;;;;5033017;28;20636;-76
2021/12/28 01:47:43;;;;;;;21.60;13.37;;;1.50;99.90;;;;;;5033406;28;20182;-70
2021/12/28 01:50:09;;;;;;;23.40;12.10;;;1.60;99.90;;;;;;5032899;28;20211;-77
2021/12/28 01:52:35;;;;;;;27.63;14.13;;;1.60;99.90;;;;;;5032385;28;20639;-70
2021/12/28 01:55:01;;;;;;;22.50;12.87;;;1.60;99.90;;;;;;5032445;28;20184;-70
2021/12/28 01:57:26;;;;;;;21.80;13.47;;;1.60;99.90;;;;;;5032784;28;20704;-70
2021/12/28 01:59:52;;;;;;;27.57;14.17;;;1.60;99.90;;;;;;5032712;28;20168;-76
2021/12/28 02:02:18;;;;;;;27.87;12.40;;;1.60;99.90;;;;;;5031946;28;20508;-71
2021/12/28 02:04:43;;;;;;;24.63;12.70;;;1.60;99.90;;;;;;5032851;28;20629;-77
2021/12/28 02:07:09;;;;;;;28.60;13.70;;;1.60;99.90;;;;;;5032960;28;20195;-77
2021/12/28 02:09:34;;;;;;;18.47;11.20;;;1.60;99.90;;;;;;5031195;28;20699;-77
2021/12/28 02:12:00;;;;;;;31.97;14.67;;;1.60;99.90;;;;;;5012569;28;20251;-76
2021/12/28 02:14:26;;;;;;;23.23;12.20;;;1.50;99.90;;;;;;5016628;28;20187;-70
2021/12/28 02:16:51;;;;;;;29.17;15.90;;;1.60;99.90;;;;;;5032487;28;20645;-76
2021/12/28 02:19:18;;;;;;;20.93;12.20;;;1.60;99.90;;;;;;5032115;28;20582;-71
2021/12/28 02:21:44;;;;;;;29.67;14.27;;;1.60;99.90;;;;;;5033106;28;20164;-71
2021/12/28 02:24:10;;;;;;;23.80;15.13;;;1.60;99.90;;;;;;5032029;28;20183;-77
2021/12/28 02:26:37;;;;;;;21.27;14.33;;;1.60;99.90;;;;;;5032559;28;20661;-77
2021/12/28 02:29:04;;;;;;;25.10;12.88;;;1.60;99.90;;;;;;5032730;28;20617;-75
2021/12/28 02:31:29;;;;;;;21.38;14.35;;;1.60;99.90;;;;;;5032251;28;20731;-76
2021/12/28 02:33:55;;;;;;;19.63;12.20;;;1.60;99.90;;;;;;5031999;28;20247;-75
2021/12/28 02:36:20;;;;;;;30.90;16.33;;;1.60;99.90;;;;;;5031780;28;20218;-71
2021/12/28 02:38:47;;;;;;;18.97;12.90;;;1.60;99.90;;;;;;5031144;28;20175;-73
2021/12/28 02:41:14;;;;;;;23.40;12.57;;;1.60;99.90;;;;;;5032673;28;20221;-77
2021/12/28 02:43:41;;;;;;;32.25;13.15;;;1.50;99.90;;;;;;5029984;28;20233;-77
2021/12/28 02:46:08;;;;;;;23.92;12.65;;;1.60;99.90;;;;;;5033265;28;20274;-77
2021/12/28 02:48:35;;;;;;;25.02;14.60;;;1.60;99.90;;;;;;5036358;28;20191;-78
2021/12/28 02:51:07;;;;;;;30.17;14.77;;;1.60;99.90;;;;;;5036094;28;20203;-72
2021/12/28 02:53:33;;;;;;;28.90;15.03;;;1.60;99.90;;;;;;5034532;28;20199;-71
2021/12/28 02:55:59;;;;;;;18.23;12.52;;;1.60;99.90;;;;;;5035662;28;20505;-76
2021/12/28 02:58:32;;;;;;;22.15;13.65;;;1.60;99.90;;;;;;5036322;28;20541;-71
2021/12/28 03:01:02;;;;;;;33.47;17.25;;;1.60;99.90;;;;;;5035966;28;20168;-71
2021/12/28 03:03:29;;;;;;;28.10;14.77;;;1.60;99.90;;;;;;5035237;28;20168;-70
2021/12/28 03:05:57;;;;;;;21.65;16.05;;;1.60;99.90;;;;;;5035909;28;20196;-71
2021/12/28 03:08:26;;;;;;;26.35;14.70;;;1.60;99.90;;;;;;5036043;28;20690;-77
2021/12/28 03:10:52;;;;;;;26.42;14.50;;;1.60;99.90;;;;;;5035281;28;20619;-71
2021/12/28 03:13:24;;;;;;;26.75;17.10;;;1.60;99.90;;;;;;5034938;28;20168;-77
2021/12/28 03:15:51;;;;;;;28.40;14.30;;;1.60;99.90;;;;;;5029098;28;20180;-76
2021/12/28 03:18:17;;;;;;;28.33;14.10;;;1.60;99.90;;;;;;5016063;28;20164;-74
2021/12/28 03:20:43;;;;;;;22.17;15.00;;;1.60;99.90;;;;;;5024187;28;20222;-71
2021/12/28 03:23:09;;;;;;;24.17;14.98;;;1.60;99.90;;;;;;5034778;28;20581;-71
2021/12/28 03:25:35;;;;;;;23.90;15.15;;;1.60;99.90;;;;;;5034074;28;20286;-71
2021/12/28 03:28:01;;;;;;;29.60;17.57;;;1.50;99.90;;;;;;5035740;28;20259;-73
2021/12/28 03:30:27;;;;;;;35.40;15.30;;;1.60;99.90;;;;;;5033967;28;20188;-70
2021/12/28 03:32:53;;;;;;;22.40;13.67;;;1.50;99.90;;;;;;5033438;28;20772;-70
2021/12/28 03:35:19;;;;;;;29.67;17.43;;;1.50;99.90;;;;;;5034986;28;20425;-74
2021/12/28 03:37:45;;;;;;;22.80;15.07;;;1.50;99.90;;;;;;5035653;28;20247;-71
2021/12/28 03:40:14;;;;;;;37.57;14.50;;;1.50;99.90;;;;;;5035358;28;20501;-77
2021/12/28 03:42:41;;;;;;;36.67;14.32;;;1.50;99.90;;;;;;5034656;28;20536;-71
2021/12/28 03:45:08;;;;;;;28.33;16.00;;;1.50;99.90;;;;;;5034070;28;20266;-71
2021/12/28 03:47:34;;;;;;;26.55;14.80;;;1.50;99.90;;;;;;5035294;28;20180;-77
2021/12/28 03:50:00;;;;;;;38.00;17.30;;;1.40;99.90;;;;;;5034101;28;20533;-77
2021/12/28 03:52:26;;;;;;;31.70;15.25;;;1.40;99.90;;;;;;5034467;28;20171;-77
2021/12/28 03:54:51;;;;;;;31.80;13.77;;;1.50;99.90;;;;;;5033866;28;20183;-71
2021/12/28 03:57:17;;;;;;;27.53;14.40;;;1.40;99.90;;;;;;5034668;28;20214;-77
2021/12/28 03:59:43;;;;;;;24.93;15.07;;;1.40;99.90;;;;;;5032830;28;20552;-71
2021/12/28 04:02:08;;;;;;;26.83;14.80;;;1.40;99.90;;;;;;5034143;28;20254;-77
2021/12/28 04:04:34;;;;;;;36.57;16.57;;;1.40;99.90;;;;;;5034727;28;20179;-72
2021/12/28 04:07:00;;;;;;;29.50;12.80;;;1.50;99.90;;;;;;5034436;28;20688;-76
2021/12/28 04:12:10;;;;;;;29.35;17.10;;;1.40;99.90;;;;;;5033885;28;20664;-77
2021/12/28 04:14:36;;;;;;;30.10;13.47;;;1.40;99.90;;;;;;5034592;28;20180;-70
2021/12/28 04:17:01;;;;;;;23.17;13.27;;;1.40;99.90;;;;;;5034652;28;20234;-71
2021/12/28 04:19:27;;;;;;;23.67;14.43;;;1.50;99.90;;;;;;5034156;28;20183;-71
2021/12/28 04:21:52;;;;;;;26.63;13.70;;;1.50;99.90;;;;;;5034045;28;20263;-71
2021/12/28 04:24:18;;;;;;;23.17;15.17;;;1.50;99.90;;;;;;5033001;28;20182;-73
2021/12/28 04:26:44;;;;;;;25.03;14.67;;;1.50;99.90;;;;;;5034521;28;20249;-77
2021/12/28 04:29:09;;;;;;;32.73;17.40;;;1.50;99.90;;;;;;5033875;28;20262;-70
2021/12/28 04:31:35;;;;;;;27.57;16.80;;;1.50;99.90;;;;;;5034402;28;20195;-77
2021/12/28 04:34:01;;;;;;;27.50;15.33;;;1.50;99.90;;;;;;5033013;28;20251;-75
2021/12/28 04:36:26;;;;;;;21.57;13.27;;;1.50;99.90;;;;;;5033315;28;20605;-70
2021/12/28 04:38:52;;;;;;;29.33;13.33;;;1.50;99.90;;;;;;5034331;28;20164;-77
2021/12/28 04:41:18;;;;;;;27.60;15.57;;;1.50;99.90;;;;;;5033586;28;20167;-71
2021/12/28 04:43:46;;;;;;;27.53;14.87;;;1.50;99.90;;;;;;5032863;28;20659;-76
2021/12/28 04:46:12;;;;;;;32.08;16.27;;;1.50;99.90;;;;;;5014333;28;20188;-78
2021/12/28 04:48:37;;;;;;;26.50;14.63;;;1.40;99.90;;;;;;5016663;28;20177;-77
2021/12/28 04:51:04;;;;;;;28.40;13.80;;;1.40;99.90;;;;;;5033942;28;20257;-70
2021/12/28 04:53:30;;;;;;;30.33;14.95;;;1.40;99.90;;;;;;5032903;28;20175;-76
2021/12/28 04:55:56;;;;;;;25.65;15.07;;;1.40;99.90;;;;;;5033794;28;20265;-71
2021/12/28 04:58:22;;;;;;;31.77;16.77;;;1.50;99.90;;;;;;5033509;28;20310;-71
2021/12/28 05:00:49;;;;;;;30.73;14.93;;;1.40;99.90;;;;;;5033341;28;20422;-77
2021/12/28 05:03:16;;;;;;;34.38;17.20;;;1.30;99.90;;;;;;5033056;28;20416;-73
2021/12/28 05:05:45;;;;;;;31.70;15.43;;;1.40;99.90;;;;;;5033537;28;20207;-70
2021/12/28 05:08:12;;;;;;;30.73;16.98;;;1.40;99.90;;;;;;5033739;28;20176;-72
2021/12/28 05:10:39;;;;;;;28.83;18.65;;;1.40;99.90;;;;;;5033139;28;20315;-73
2021/12/28 05:13:05;;;;;;;30.10;16.20;;;1.40;99.90;;;;;;5031591;28;20174;-71
2021/12/28 05:15:30;;;;;;;24.97;15.67;;;1.40;99.90;;;;;;5032678;28;20258;-73
2021/12/28 05:17:56;;;;;;;23.30;14.13;;;1.40;99.90;;;;;;5033494;28;20177;-74
2021/12/28 05:20:22;;;;;;;32.43;18.20;;;1.40;99.90;;;;;;5033240;28;20422;-70
2021/12/28 05:22:48;;;;;;;21.27;15.90;;;1.40;99.90;;;;;;5032869;28;20170;-76
2021/12/28 05:25:13;;;;;;;27.20;15.77;;;1.40;99.90;;;;;;5033427;28;20172;-71
2021/12/28 05:27:39;;;;;;;30.67;16.03;;;1.40;99.90;;;;;;5033475;28;20198;-71
2021/12/28 05:30:07;;;;;;;36.50;16.27;;;1.40;99.90;;;;;;5032963;28;20187;-71
2021/12/28 05:32:33;;;;;;;32.70;17.45;;;1.40;99.90;;;;;;5030652;28;20167;-72
2021/12/28 05:34:58;;;;;;;30.37;14.67;;;1.40;99.90;;;;;;5032969;28;20634;-71
2021/12/28 05:37:24;;;;;;;21.80;14.90;;;1.40;99.90;;;;;;5033401;28;20426;-71
2021/12/28 05:39:49;;;;;;;31.17;17.27;;;1.40;99.90;;;;;;5033157;28;20199;-73
2021/12/28 05:42:15;;;;;;;35.37;17.07;;;1.40;99.90;;;;;;5032416;28;20163;-77
2021/12/28 05:44:41;;;;;;;36.53;15.70;;;1.40;99.90;;;;;;5029189;28;20176;-74
2021/12/28 05:47:07;;;;;;;28.17;16.17;;;1.50;99.90;;;;;;5013642;28;20184;-77
2021/12/28 05:49:32;;;;;;;31.40;15.87;;;1.50;99.90;;;;;;5018990;28;20511;-71
2021/12/28 05:51:58;;;;;;;21.07;14.67;;;1.50;99.90;;;;;;5032160;28;20235;-76
2021/12/28 05:54:24;;;;;;;32.57;14.10;;;1.50;99.90;;;;;;5032467;28;20540;-70
2021/12/28 05:56:50;;;;;;;33.10;16.13;;;1.50;99.90;;;;;;5033004;28;20649;-72
2021/12/28 05:59:15;;;;;;;36.78;16.88;;;1.50;99.90;;;;;;5032868;28;20175;-75
2021/12/28 06:01:41;;;;;;;27.70;18.17;;;1.50;99.90;;;;;;5033251;28;20184;-76
2021/12/28 06:04:07;;;;;;;36.80;16.60;;;1.50;99.90;;;;;;5031991;28;20182;-71
2021/12/28 06:06:33;;;;;;;31.77;18.25;;;1.50;99.90;;;;;;5033004;28;20188;-72
2021/12/28 06:08:59;;;;;;;24.20;13.97;;;1.50;99.90;;;;;;5032409;28;20238;-77
2021/12/28 06:11:24;;;;;;;34.47;16.67;;;1.50;99.90;;;;;;5032616;28;20657;-71
2021/12/28 06:13:50;;;;;;;27.87;16.93;;;1.50;99.90;;;;;;5031343;28;20179;-71
2021/12/28 06:16:16;;;;;;;33.07;15.77;;;1.50;99.90;;;;;;5032956;28;20195;-70
2021/12/28 06:18:42;;;;;;;27.75;16.23;;;1.40;99.90;;;;;;5032665;28;20631;-77
2021/12/28 06:21:08;;;;;;;46.63;15.80;;;1.40;99.90;;;;;;5033600;28;20179;-77
2021/12/28 06:23:34;;;;;;;29.00;13.90;;;1.40;99.90;;;;;;5035825;28;20187;-70
2021/12/28 06:25:59;;;;;;;35.42;15.15;;;1.40;99.90;;;;;;5036399;28;20603;-71
2021/12/28 06:28:26;;;;;;;31.90;16.10;;;1.40;99.90;;;;;;5036022;28;20227;-78
2021/12/28 06:30:53;;;;;;;36.75;17.10;;;1.40;99.90;;;;;;5036444;28;20253;-71
2021/12/28 06:33:20;;;;;;;30.97;17.07;;;1.50;99.90;;;;;;5035715;28;20230;-77
2021/12/28 06:35:46;;;;;;;31.03;16.47;;;1.50;99.90;;;;;;5036637;28;20449;-75
2021/12/28 06:38:12;;;;;;;33.80;16.33;;;1.50;99.90;;;;;;5036677;28;20397;-72
2021/12/28 06:40:38;;;;;;;33.63;16.43;;;1.50;99.90;;;;;;5035084;28;20483;-76
2021/12/28 06:43:04;;;;;;;27.00;15.10;;;1.50;99.90;;;;;;5035332;28;20175;-70
2021/12/28 06:45:30;;;;;;;18.80;12.37;;;1.50;99.90;;;;;;5035194;28;20188;-76
2021/12/28 06:47:55;;;;;;;21.07;14.30;;;1.60;99.90;;;;;;5035188;28;20450;-77
2021/12/28 06:50:21;;;;;;;24.23;18.10;;;1.50;99.90;;;;;;5035956;28;20203;-79
2021/12/28 06:52:47;;;;;;;36.95;17.50;;;1.60;99.90;;;;;;5034707;28;20445;-76
2021/12/28 06:55:12;;;;;;;34.20;18.20;;;1.60;99.90;;;;;;5036316;28;20223;-77
2021/12/28 06:57:38;;;;;;;22.70;14.50;;;1.50;99.90;;;;;;5035350;28;20387;-74
2021/12/28 07:00:12;;;;;;;36.47;16.50;;;1.50;99.90;;;;;;5036083;28;20175;-69
2021/12/28 07:02:37;;;;;;;25.80;14.05;;;1.60;99.90;;;;;;5034486;28;20418;-69
2021/12/28 07:05:05;;;;;;;24.67;15.23;;;1.50;99.90;;;;;;5035712;28;20183;-76
2021/12/28 07:07:31;;;;;;;33.78;16.65;;;1.60;99.90;;;;;;5036142;28;20282;-70
2021/12/28 07:09:56;;;;;;;25.97;13.80;;;1.50;99.90;;;;;;5035735;28;20290;-77
2021/12/28 07:12:22;;;;;;;28.37;17.83;;;1.50;99.90;;;;;;5035035;28;20171;-70
2021/12/28 07:14:48;;;;;;;28.27;16.43;;;1.50;99.90;;;;;;5033958;28;20179;-71
2021/12/28 07:17:13;;;;;;;32.83;17.20;;;1.60;99.90;;;;;;5035773;28;20225;-77
2021/12/28 07:19:39;;;;;;;26.90;15.17;;;1.60;99.90;;;;;;5035257;28;20258;-77
2021/12/28 07:22:05;;;;;;;26.50;16.00;;;1.60;99.90;;;;;;5034616;28;20172;-77
2021/12/28 07:24:31;;;;;;;27.50;15.23;;;1.50;99.90;;;;;;5035281;28;20604;-72
2021/12/28 07:26:57;;;;;;;23.70;14.40;;;1.60;99.90;;;;;;5035500;28;20194;-69
2021/12/28 07:29:23;;;;;;;23.70;13.63;;;1.60;99.90;;;;;;5035260;28;20262;-76
2021/12/28 07:31:49;;;;;;;20.27;15.70;;;1.60;99.90;;;;;;5035115;28;20314;-76
2021/12/28 07:34:15;;;;;;;28.02;16.23;;;1.60;99.90;;;;;;5034510;28;20183;-72
2021/12/28 07:36:40;;;;;;;29.33;16.10;;;1.60;99.90;;;;;;5034921;28;20183;-74
2021/12/28 07:39:06;;;;;;;32.80;17.00;;;1.60;99.90;;;;;;5034688;28;20172;-70
2021/12/28 07:41:32;;;;;;;36.43;17.33;;;1.60;99.90;;;;;;5035316;28;20629;-72
2021/12/28 07:43:58;;;;;;;22.52;16.42;;;1.60;99.90;;;;;;5033010;28;20473;-72
2021/12/28 07:46:24;;;;;;;21.73;14.80;;;1.60;99.90;;;;;;5035543;28;20199;-70
2021/12/28 07:48:50;;;;;;;20.30;14.57;;;1.70;99.90;;;;;;5035218;28;20433;-77
2021/12/28 07:51:16;;;;;;;27.40;14.87;;;1.70;99.90;;;;;;5035095;28;20203;-75
2021/12/28 07:53:42;;;;;;;29.10;15.68;;;1.70;99.90;;;;;;5032542;28;20406;-70
2021/12/28 07:56:07;;;;;;;26.43;15.60;;;1.70;99.90;;;;;;5034024;28;20195;-71
2021/12/28 07:58:33;;;;;;;32.67;14.50;;;1.70;99.90;;;;;;5034535;28;20910;-77
2021/12/28 08:00:59;;;;;;;28.13;14.30;;;1.70;99.90;;;;;;5035169;28;20209;-71
2021/12/28 08:03:25;;;;;;;36.90;17.90;;;1.70;99.90;;;;;;5033787;28;20783;-76
2021/12/28 08:05:52;;;;;;;31.10;14.50;;;1.70;99.90;;;;;;5034847;28;20195;-77
2021/12/28 08:08:18;;;;;;;41.17;12.60;;;1.70;99.90;;;;;;5034570;28;20175;-78
2021/12/28 08:10:44;;;;;;;18.52;13.07;;;1.80;99.90;;;;;;5033102;28;20294;-77
2021/12/28 08:13:10;;;;;;;32.67;16.57;;;1.80;99.90;;;;;;5034154;28;20628;-71
2021/12/28 08:15:35;;;;;;;30.67;15.60;;;1.80;99.90;;;;;;5034219;28;20395;-77
2021/12/28 08:18:04;;;;;;;31.47;16.53;;;1.80;99.90;;;;;;5033440;28;20203;-75
2021/12/28 08:20:30;;;;;;;25.07;14.20;;;1.80;99.90;;;;;;5034859;28;20164;-73
2021/12/28 08:22:57;;;;;;;35.22;16.80;;;1.80;99.90;;;;;;5032708;28;20814;-72
2021/12/28 08:25:23;;;;;;;36.37;16.20;;;1.80;99.90;;;;;;5034412;28;20163;-77
2021/12/28 08:27:49;;;;;;;26.75;17.20;;;1.80;99.90;;;;;;5034069;28;20494;-71
2021/12/28 08:30:16;;;;;;;30.08;17.88;;;1.80;99.90;;;;;;5034350;28;20710;-73
2021/12/28 08:32:43;;;;;;;30.20;17.60;;;1.80;99.90;;;;;;5032421;28;20184;-73
2021/12/28 08:35:09;;;;;;;38.67;16.08;;;1.70;99.90;;;;;;5034366;28;20481;-75
2021/12/28 08:37:38;;;;;;;21.80;14.27;;;1.70;99.90;;;;;;5034633;28;20179;-76
2021/12/28 08:40:05;;;;;;;20.25;14.30;;;1.80;99.90;;;;;;5034236;28;20168;-78
2021/12/28 08:42:31;;;;;;;23.23;14.68;;;1.80;99.90;;;;;;5033076;28;20652;-81
2021/12/28 08:44:57;;;;;;;26.67;14.40;;;1.80;99.90;;;;;;5048990;28;20179;-80
2021/12/28 08:47:26;;;;;;;30.60;17.33;;;1.80;99.90;;;;;;5033518;28;20199;-80
2021/12/28 08:49:56;;;;;;;29.70;17.15;;;1.80;99.90;;;;;;5033513;28;20171;-80
2021/12/28 08:52:22;;;;;;;33.83;15.90;;;1.80;99.90;;;;;;5032365;28;20529;-80
2021/12/28 08:54:49;;;;;;;25.80;15.05;;;1.80;99.90;;;;;;5033080;28;20164;-77
2021/12/28 08:57:15;;;;;;;19.67;11.77;;;1.80;99.90;;;;;;5029348;28;20203;-77
2021/12/28 08:59:41;;;;;;;26.27;15.63;;;1.80;99.90;;;;;;5014054;28;20164;-74
2021/12/28 09:02:08;;;;;;;35.95;18.95;;;1.80;99.90;;;;;;5032163;28;20194;-74
2021/12/28 09:04:34;;;;;;;33.08;16.25;;;1.80;99.90;;;;;;5033926;28;20195;-73
2021/12/28 09:07:00;;;;;;;27.70;15.93;;;1.80;99.90;;;;;;5033063;28;20668;-72
2021/12/28 09:09:25;;;;;;;29.93;16.80;;;1.80;99.90;;;;;;5032678;28;20167;-74
2021/12/28 09:11:51;;;;;;;23.63;14.87;;;1.80;99.90;;;;;;5032651;28;20504;-75
2021/12/28 09:14:17;;;;;;;35.50;16.90;;;1.80;99.90;;;;;;5033058;28;20159;-77
2021/12/28 09:16:42;;;;;;;43.67;15.80;;;2.00;99.90;;;;;;5033443;28;20191;-77
2021/12/28 09:19:08;;;;;;;41.50;15.30;;;2.00;99.90;;;;;;5033567;28;20164;-76
2021/12/28 09:21:34;;;;;;;37.47;15.80;;;2.10;99.90;;;;;;5032129;28;20203;-74
2021/12/28 09:24:00;;;;;;;26.80;16.37;;;2.10;99.90;;;;;;5031391;28;20171;-74
2021/12/28 09:26:26;;;;;;;31.50;19.27;;;2.00;99.90;;;;;;5032743;28;20192;-73
2021/12/28 09:28:51;;;;;;;29.85;16.35;;;2.00;99.90;;;;;;5033075;28;20406;-76
2021/12/28 09:31:17;;;;;;;34.67;18.03;;;2.10;99.90;;;;;;5031384;28;20717;-76
2021/12/28 09:33:43;;;;;;;42.90;19.20;;;2.00;99.90;;;;;;5031379;28;20168;-73
2021/12/28 09:36:13;;;;;;;22.40;15.80;;;2.00;99.90;;;;;;5032997;28;20695;-76
2021/12/28 09:38:38;;;;;;;21.50;16.70;;;2.00;99.90;;;;;;5033412;28;20517;-76
2021/12/28 09:41:04;;;;;;;31.10;17.73;;;2.00;99.90;;;;;;5032088;28;20406;-74
2021/12/28 09:43:30;;;;;;;27.80;16.00;;;2.10;99.90;;;;;;5032341;28;20276;-75
2021/12/28 09:45:55;;;;;;;33.17;19.03;;;2.00;99.90;;;;;;5032938;28;20189;-74
2021/12/28 09:48:21;;;;;;;32.03;16.23;;;2.00;99.90;;;;;;5033317;28;20175;-75
2021/12/28 09:50:47;;;;;;;35.30;15.93;;;2.00;99.90;;;;;;5033408;28;20211;-75
2021/12/28 09:53:14;;;;;;;41.40;16.90;;;2.00;99.90;;;;;;5032708;28;20242;-76
2021/12/28 09:55:41;;;;;;;29.88;17.63;;;2.00;99.90;;;;;;5034651;28;20540;-74
2021/12/28 09:58:07;;;;;;;21.98;15.07;;;2.00;99.90;;;;;;5037406;28;20190;-73
2021/12/28 10:00:32;;;;;;;32.70;16.93;;;2.00;99.90;;;;;;5036627;28;20667;-75
2021/12/28 10:03:02;;;;;;;25.77;15.03;;;2.00;99.90;;;;;;5036362;28;20171;-76
2021/12/28 10:05:29;;;;;;;22.75;17.42;;;1.90;99.90;;;;;;5037250;28;20164;-76
2021/12/28 10:07:57;;;;;;;32.25;18.58;;;1.90;99.90;;;;;;5037274;28;20171;-76
2021/12/28 10:10:28;;;;;;;32.08;17.05;;;1.90;99.90;;;;;;5036574;28;20660;-76
2021/12/28 10:12:58;;;;;;;41.22;17.67;;;1.90;99.90;;;;;;5036486;28;20190;-72
2021/12/28 10:15:28;;;;;;;26.75;17.88;;;1.90;99.90;;;;;;5035800;28;20575;-73
2021/12/28 10:17:56;;;;;;;32.80;17.10;;;1.90;99.90;;;;;;5035146;28;20176;-77
2021/12/28 10:20:29;;;;;;;37.53;21.40;;;1.90;99.90;;;;;;5036541;28;20171;-75
2021/12/28 10:22:58;;;;;;;37.60;17.70;;;1.90;99.90;;;;;;5035110;28;20187;-73
2021/12/28 10:25:27;;;;;;;30.63;18.48;;;1.90;99.90;;;;;;5036742;28;20906;-73
2021/12/28 10:28:03;;;;;;;34.65;20.05;;;2.00;99.90;;;;;;5036763;28;20176;-77
2021/12/28 10:30:36;;;;;;;33.65;18.27;;;2.00;99.90;;;;;;5036638;28;20257;-75
2021/12/28 10:33:07;;;;;;;33.13;20.17;;;2.10;99.90;;;;;;5036076;28;20164;-75
2021/12/28 10:35:40;;;;;;;31.90;18.45;;;2.10;99.90;;;;;;5035764;28;20421;-73
2021/12/28 10:38:10;;;;;;;30.43;18.43;;;2.00;99.90;;;;;;5036654;28;20164;-74
2021/12/28 10:40:51;;;;;;;31.57;20.40;;;2.10;99.90;;;;;;5035226;28;20441;-75
2021/12/28 10:43:18;;;;;;;27.00;18.30;;;2.20;99.90;;;;;;5035952;28;20453;-74
2021/12/28 10:45:51;;;;;;;32.43;18.87;;;2.10;99.90;;;;;;5036401;28;20512;-70
2021/12/28 10:48:19;;;;;;;36.60;17.77;;;2.10;99.90;;;;;;5036638;28;20866;-75
2021/12/28 10:51:00;;;;;;;41.63;20.15;;;2.20;99.90;;;;;;5034403;28;20880;-73
2021/12/28 10:53:55;;;;;;;47.67;21.02;;;2.20;99.90;;;;;;5035596;28;20175;-69
2021/12/28 10:56:23;;;;;;;28.80;18.92;;;2.20;99.90;;;;;;5036146;28;20265;-70
2021/12/28 10:58:51;;;;;;;32.42;17.25;;;2.20;99.90;;;;;;5036309;28;20255;-75
2021/12/28 11:01:23;;;;;;;47.85;18.27;;;2.20;99.90;;;;;;5036339;28;20164;-75
2021/12/28 11:04:05;;;;;;;39.27;21.10;;;2.20;99.90;;;;;;5035381;28;20171;-70
2021/12/28 11:06:36;;;;;;;38.73;19.50;;;2.20;99.90;;;;;;5034504;28;20464;-70
2021/12/28 11:09:17;;;;;;;39.17;19.70;;;2.30;99.90;;;;;;5035572;28;20891;-69
2021/12/28 11:11:43;;;;;;;36.27;19.17;;;2.30;99.90;;;;;;5035236;28;20203;-72
2021/12/28 11:14:21;;;;;;;32.80;20.20;;;2.40;99.90;;;;;;5035316;28;20981;-75
2021/12/28 11:16:58;;;;;;;37.07;20.97;;;2.30;99.90;;;;;;5034732;28;20187;-68
2021/12/28 11:19:33;;;;;;;32.10;18.40;;;2.30;99.90;;;;;;5036089;28;20417;-75
2021/12/28 11:22:02;;;;;;;31.20;17.30;;;2.40;99.90;;;;;;5035209;28;20421;-74
2021/12/28 11:24:33;;;;;;;44.80;20.03;;;2.40;99.90;;;;;;5035803;28;20472;-70
2021/12/28 11:27:00;;;;;;;37.07;19.47;;;2.50;99.90;;;;;;5035454;28;20441;-70
2021/12/28 11:29:35;;;;;;;37.23;18.67;;;2.50;99.90;;;;;;5035269;28;20416;-70
2021/12/28 11:32:04;;;;;;;38.20;17.77;;;2.60;99.90;;;;;;5034507;28;20488;-74
2021/12/28 11:34:31;;;;;;;36.77;19.60;;;2.60;99.90;;;;;;5035677;28;20399;-69
2021/12/28 11:37:00;;;;;;;49.87;21.10;;;2.70;99.90;;;;;;5035332;28;20803;-74
2021/12/28 11:39:28;;;;;;;41.93;20.07;;;2.70;99.90;;;;;;5035436;28;20407;-74
2021/12/28 11:41:55;;;;;;;32.40;21.87;;;2.70;99.90;;;;;;5035275;28;20892;-68
2021/12/28 11:44:23;;;;;;;31.73;15.10;;;2.70;99.90;;;;;;5033537;28;20911;-74
2021/12/28 11:46:50;;;;;;;31.70;16.60;;;2.60;99.90;;;;;;5034476;28;20484;-70
2021/12/28 11:49:16;;;;;;;35.13;20.17;;;2.70;99.90;;;;;;5035125;28;20441;-69
2021/12/28 11:51:44;;;;;;;37.17;18.43;;;2.70;99.90;;;;;;5035177;28;20457;-73
2021/12/28 11:54:14;;;;;;;29.00;17.57;;;2.80;99.90;;;;;;5034416;28;20410;-74
2021/12/28 11:56:49;;;;;;;49.17;21.47;;;2.80;99.90;;;;;;5035196;28;20422;-69
2021/12/28 11:59:20;;;;;;;43.43;22.20;;;2.80;99.90;;;;;;5035048;28;20429;-74
2021/12/28 12:01:53;;;;;;;43.40;20.10;;;2.80;99.90;;;;;;5034957;28;20433;-73
2021/12/28 12:04:31;;;;;;;37.60;19.73;;;2.80;99.90;;;;;;5033620;28;20417;-74
2021/12/28 12:07:14;;;;;;;28.77;18.10;;;2.70;99.90;;;;;;5033705;28;20429;-68
2021/12/28 12:09:49;;;;;;;44.03;17.60;;;2.70;99.90;;;;;;5034960;28;20406;-69
2021/12/28 12:12:30;;;;;;;34.10;20.00;;;2.60;99.90;;;;;;5034060;28;20457;-73
2021/12/28 12:15:00;;;;;;;46.43;19.97;;;2.50;99.90;;;;;;5033748;28;20410;-74
2021/12/28 12:17:29;;;;;;;35.10;20.03;;;2.60;99.90;;;;;;5033369;28;20954;-68
2021/12/28 12:20:00;;;;;;;24.90;16.97;;;2.60;99.90;;;;;;5033842;28;20947;-67
2021/12/28 12:22:48;;;;;;;31.73;18.47;;;2.50;99.90;;;;;;5032876;28;20415;-73
2021/12/28 12:25:20;;;;;;;40.17;21.70;;;2.50;99.90;;;;;;5034564;28;20406;-68
2021/12/28 12:27:56;;;;;;;25.93;16.43;;;2.50;99.90;;;;;;5034613;28;20483;-69
2021/12/28 12:30:22;;;;;;;33.00;17.97;;;2.50;99.90;;;;;;5034520;28;20500;-73
2021/12/28 12:33:06;;;;;;;24.53;16.50;;;2.50;99.90;;;;;;5033793;28;20791;-67
2021/12/28 12:35:41;;;;;;;44.63;18.17;;;2.40;99.90;;;;;;5034254;28;20174;-68
2021/12/28 12:38:10;;;;;;;36.07;17.20;;;2.40;99.90;;;;;;5034662;28;20431;-68
2021/12/28 12:41:01;;;;;;;44.70;18.47;;;2.40;99.90;;;;;;5032418;28;20514;-69
2021/12/28 12:43:39;;;;;;;36.57;18.53;;;2.50;99.90;;;;;;5033428;28;20428;-70